Terminal Aerodrome Forecast
Issued by NWS Cleveland, OH

Home | Current Version | Previous Version | Graphics & Text | Print | Product List | Glossary On
Versions: 1 2 3 4 5 6 7 8 9 10 11 12 13 14 15 16 17 18
000
FTUS41 KCLE 210523
TAFCAK
TAF
KCAK 210523Z 2106/2206 14011KT P6SM SCT050 BKN120
     FM211300 18012KT P6SM VCSH OVC040
     FM211500 18012KT 6SM -SHRA VCTS BKN020 OVC060CB
     FM211900 19014KT P6SM VCSH BKN030
     FM220000 21010KT P6SM -SHRA VCTS SCT025 BKN050CB
     FM220300 23009KT P6SM BKN040=

USA.gov is the U.S. government's official web portal to all federal, state and local government web resources and services.